sensor_id;sensor_type;location;lat;lon;timestamp;P1;durP1;ratioP1;P2;durP2;ratioP2
39020;SDS011;25188;51.958;5.842;2023-04-25T00:01:03;15.33;;;3.37;;
39020;SDS011;25188;51.958;5.842;2023-04-25T00:03:33;12.17;;;2.97;;
39020;SDS011;25188;51.958;5.842;2023-04-25T00:06:00;14.00;;;2.90;;
39020;SDS011;25188;51.958;5.842;2023-04-25T00:08:27;16.17;;;3.47;;
39020;SDS011;25188;51.958;5.842;2023-04-25T00:10:53;11.67;;;3.27;;
39020;SDS011;25188;51.958;5.842;2023-04-25T00:13:19;14.60;;;3.60;;
39020;SDS011;25188;51.958;5.842;2023-04-25T00:15:45;16.70;;;3.23;;
39020;SDS011;25188;51.958;5.842;2023-04-25T00:18:11;12.83;;;2.83;;
39020;SDS011;25188;51.958;5.842;2023-04-25T00:20:36;15.30;;;2.53;;
39020;SDS011;25188;51.958;5.842;2023-04-25T00:23:02;10.37;;;2.90;;
39020;SDS011;25188;51.958;5.842;2023-04-25T00:25:28;16.90;;;3.90;;
39020;SDS011;25188;51.958;5.842;2023-04-25T00:27:53;12.80;;;2.90;;
39020;SDS011;25188;51.958;5.842;2023-04-25T00:30:19;17.30;;;3.37;;
39020;SDS011;25188;51.958;5.842;2023-04-25T00:32:45;16.43;;;3.23;;
39020;SDS011;25188;51.958;5.842;2023-04-25T00:35:11;15.17;;;2.80;;
39020;SDS011;25188;51.958;5.842;2023-04-25T00:37:36;16.40;;;3.33;;
39020;SDS011;25188;51.958;5.842;2023-04-25T00:40:04;13.90;;;4.37;;
39020;SDS011;25188;51.958;5.842;2023-04-25T00:42:31;16.13;;;3.40;;
39020;SDS011;25188;51.958;5.842;2023-04-25T00:44:58;11.47;;;3.90;;
39020;SDS011;25188;51.958;5.842;2023-04-25T00:47:24;12.53;;;3.60;;
39020;SDS011;25188;51.958;5.842;2023-04-25T00:49:50;13.33;;;3.60;;
39020;SDS011;25188;51.958;5.842;2023-04-25T00:52:18;13.60;;;3.80;;
39020;SDS011;25188;51.958;5.842;2023-04-25T00:54:44;12.70;;;3.60;;
39020;SDS011;25188;51.958;5.842;2023-04-25T00:57:10;13.27;;;3.33;;
39020;SDS011;25188;51.958;5.842;2023-04-25T00:59:36;9.63;;;3.50;;
39020;SDS011;25188;51.958;5.842;2023-04-25T01:02:03;13.57;;;3.00;;
39020;SDS011;25188;51.958;5.842;2023-04-25T01:04:30;18.80;;;3.60;;
39020;SDS011;25188;51.958;5.842;2023-04-25T01:06:55;11.80;;;3.37;;
39020;SDS011;25188;51.958;5.842;2023-04-25T01:09:22;12.40;;;3.80;;
39020;SDS011;25188;51.958;5.842;2023-04-25T01:11:49;14.00;;;3.60;;
39020;SDS011;25188;51.958;5.842;2023-04-25T01:14:15;9.67;;;2.80;;
39020;SDS011;25188;51.958;5.842;2023-04-25T01:16:41;11.60;;;3.27;;
39020;SDS011;25188;51.958;5.842;2023-04-25T01:19:08;13.53;;;4.27;;
39020;SDS011;25188;51.958;5.842;2023-04-25T01:21:38;9.43;;;3.63;;
39020;SDS011;25188;51.958;5.842;2023-04-25T01:24:05;16.57;;;4.80;;
39020;SDS011;25188;51.958;5.842;2023-04-25T01:26:31;10.77;;;3.33;;
39020;SDS011;25188;51.958;5.842;2023-04-25T01:28:57;10.10;;;3.00;;
39020;SDS011;25188;51.958;5.842;2023-04-25T01:31:23;15.47;;;3.90;;
39020;SDS011;25188;51.958;5.842;2023-04-25T01:33:50;14.77;;;4.27;;
39020;SDS011;25188;51.958;5.842;2023-04-25T01:36:15;17.97;;;3.83;;
39020;SDS011;25188;51.958;5.842;2023-04-25T01:38:41;15.27;;;3.90;;
39020;SDS011;25188;51.958;5.842;2023-04-25T01:41:08;15.53;;;3.70;;
39020;SDS011;25188;51.958;5.842;2023-04-25T01:43:34;16.83;;;3.87;;
39020;SDS011;25188;51.958;5.842;2023-04-25T01:46:00;17.40;;;4.17;;
39020;SDS011;25188;51.958;5.842;2023-04-25T01:48:26;15.83;;;4.30;;
39020;SDS011;25188;51.958;5.842;2023-04-25T01:50:52;22.50;;;3.67;;
39020;SDS011;25188;51.958;5.842;2023-04-25T01:53:18;17.60;;;4.77;;
39020;SDS011;25188;51.958;5.842;2023-04-25T01:55:43;18.53;;;4.60;;
39020;SDS011;25188;51.958;5.842;2023-04-25T01:58:09;15.00;;;4.13;;
39020;SDS011;25188;51.958;5.842;2023-04-25T02:00:37;19.03;;;4.27;;
39020;SDS011;25188;51.958;5.842;2023-04-25T02:03:04;16.97;;;4.13;;
39020;SDS011;25188;51.958;5.842;2023-04-25T02:05:39;13.20;;;3.57;;
39020;SDS011;25188;51.958;5.842;2023-04-25T02:08:05;12.87;;;3.47;;
39020;SDS011;25188;51.958;5.842;2023-04-25T02:10:32;14.23;;;5.27;;
39020;SDS011;25188;51.958;5.842;2023-04-25T02:12:58;18.50;;;4.37;;
39020;SDS011;25188;51.958;5.842;2023-04-25T02:15:24;14.93;;;4.07;;
39020;SDS011;25188;51.958;5.842;2023-04-25T02:17:49;19.77;;;5.80;;
39020;SDS011;25188;51.958;5.842;2023-04-25T02:20:17;10.23;;;3.87;;
39020;SDS011;25188;51.958;5.842;2023-04-25T02:22:45;18.67;;;4.50;;
39020;SDS011;25188;51.958;5.842;2023-04-25T02:25:10;13.73;;;3.57;;
39020;SDS011;25188;51.958;5.842;2023-04-25T02:27:37;13.33;;;3.87;;
39020;SDS011;25188;51.958;5.842;2023-04-25T02:30:03;15.93;;;4.33;;
39020;SDS011;25188;51.958;5.842;2023-04-25T02:32:29;16.17;;;3.40;;
39020;SDS011;25188;51.958;5.842;2023-04-25T02:34:55;17.43;;;4.23;;
39020;SDS011;25188;51.958;5.842;2023-04-25T02:37:23;16.13;;;3.87;;
39020;SDS011;25188;51.958;5.842;2023-04-25T02:39:49;18.77;;;4.17;;
39020;SDS011;25188;51.958;5.842;2023-04-25T02:42:15;17.20;;;4.13;;
39020;SDS011;25188;51.958;5.842;2023-04-25T02:44:41;18.37;;;4.50;;
39020;SDS011;25188;51.958;5.842;2023-04-25T02:47:06;16.30;;;3.90;;
39020;SDS011;25188;51.958;5.842;2023-04-25T02:49:32;12.73;;;4.00;;
39020;SDS011;25188;51.958;5.842;2023-04-25T02:51:57;20.43;;;4.30;;
39020;SDS011;25188;51.958;5.842;2023-04-25T02:54:23;14.97;;;4.17;;
39020;SDS011;25188;51.958;5.842;2023-04-25T02:56:49;14.93;;;3.93;;
39020;SDS011;25188;51.958;5.842;2023-04-25T02:59:14;12.90;;;3.63;;
39020;SDS011;25188;51.958;5.842;2023-04-25T03:01:40;13.07;;;4.60;;
39020;SDS011;25188;51.958;5.842;2023-04-25T03:04:06;15.23;;;3.67;;
39020;SDS011;25188;51.958;5.842;2023-04-25T03:06:31;17.50;;;4.00;;
39020;SDS011;25188;51.958;5.842;2023-04-25T03:08:57;15.50;;;4.27;;
39020;SDS011;25188;51.958;5.842;2023-04-25T03:11:25;14.50;;;4.00;;
39020;SDS011;25188;51.958;5.842;2023-04-25T03:13:51;13.20;;;4.00;;
39020;SDS011;25188;51.958;5.842;2023-04-25T03:16:17;19.30;;;4.03;;
39020;SDS011;25188;51.958;5.842;2023-04-25T03:18:42;17.17;;;3.93;;
39020;SDS011;25188;51.958;5.842;2023-04-25T03:21:08;14.37;;;3.83;;
39020;SDS011;25188;51.958;5.842;2023-04-25T03:23:34;17.53;;;4.40;;
39020;SDS011;25188;51.958;5.842;2023-04-25T03:25:59;13.07;;;3.37;;
39020;SDS011;25188;51.958;5.842;2023-04-25T03:28:25;14.40;;;3.83;;
39020;SDS011;25188;51.958;5.842;2023-04-25T03:30:51;14.23;;;3.83;;
39020;SDS011;25188;51.958;5.842;2023-04-25T03:33:16;20.83;;;4.33;;
39020;SDS011;25188;51.958;5.842;2023-04-25T03:35:42;15.00;;;3.67;;
39020;SDS011;25188;51.958;5.842;2023-04-25T03:38:08;12.13;;;3.23;;
39020;SDS011;25188;51.958;5.842;2023-04-25T03:40:33;15.77;;;4.93;;
39020;SDS011;25188;51.958;5.842;2023-04-25T03:42:59;17.87;;;4.10;;
39020;SDS011;25188;51.958;5.842;2023-04-25T03:45:25;15.43;;;3.97;;
39020;SDS011;25188;51.958;5.842;2023-04-25T03:47:51;14.77;;;3.43;;
39020;SDS011;25188;51.958;5.842;2023-04-25T03:50:16;12.23;;;3.77;;
39020;SDS011;25188;51.958;5.842;2023-04-25T03:52:42;16.20;;;4.03;;
39020;SDS011;25188;51.958;5.842;2023-04-25T03:55:08;17.57;;;4.13;;
39020;SDS011;25188;51.958;5.842;2023-04-25T03:57:34;14.17;;;4.30;;
39020;SDS011;25188;51.958;5.842;2023-04-25T04:00:00;14.37;;;4.37;;
39020;SDS011;25188;51.958;5.842;2023-04-25T04:02:26;13.53;;;3.80;;
39020;SDS011;25188;51.958;5.842;2023-04-25T04:04:51;14.73;;;4.87;;
39020;SDS011;25188;51.958;5.842;2023-04-25T04:07:17;13.03;;;5.07;;
39020;SDS011;25188;51.958;5.842;2023-04-25T04:09:43;15.33;;;4.90;;
39020;SDS011;25188;51.958;5.842;2023-04-25T04:12:08;17.90;;;5.33;;
39020;SDS011;25188;51.958;5.842;2023-04-25T04:14:34;15.30;;;4.73;;
39020;SDS011;25188;51.958;5.842;2023-04-25T04:17:00;18.63;;;5.50;;
39020;SDS011;25188;51.958;5.842;2023-04-25T04:19:25;19.87;;;5.93;;
39020;SDS011;25188;51.958;5.842;2023-04-25T04:21:51;20.90;;;6.13;;
39020;SDS011;25188;51.958;5.842;2023-04-25T04:24:20;18.20;;;5.53;;
39020;SDS011;25188;51.958;5.842;2023-04-25T04:26:45;19.80;;;5.90;;
39020;SDS011;25188;51.958;5.842;2023-04-25T04:29:11;18.30;;;5.90;;
39020;SDS011;25188;51.958;5.842;2023-04-25T04:31:37;14.27;;;5.93;;
39020;SDS011;25188;51.958;5.842;2023-04-25T04:34:03;16.13;;;6.17;;
39020;SDS011;25188;51.958;5.842;2023-04-25T04:36:29;18.60;;;6.23;;
39020;SDS011;25188;51.958;5.842;2023-04-25T04:38:55;20.10;;;6.40;;
39020;SDS011;25188;51.958;5.842;2023-04-25T04:41:21;17.03;;;5.57;;
39020;SDS011;25188;51.958;5.842;2023-04-25T04:43:47;16.33;;;5.93;;
39020;SDS011;25188;51.958;5.842;2023-04-25T04:46:13;13.60;;;6.53;;
39020;SDS011;25188;51.958;5.842;2023-04-25T04:48:39;16.97;;;5.13;;
39020;SDS011;25188;51.958;5.842;2023-04-25T04:51:05;19.97;;;5.50;;
39020;SDS011;25188;51.958;5.842;2023-04-25T04:53:31;19.97;;;4.70;;
39020;SDS011;25188;51.958;5.842;2023-04-25T04:55:57;15.30;;;3.97;;
39020;SDS011;25188;51.958;5.842;2023-04-25T04:58:23;19.43;;;4.33;;
39020;SDS011;25188;51.958;5.842;2023-04-25T05:00:48;14.83;;;4.80;;
39020;SDS011;25188;51.958;5.842;2023-04-25T05:03:14;15.33;;;4.50;;
39020;SDS011;25188;51.958;5.842;2023-04-25T05:05:40;17.50;;;4.07;;
39020;SDS011;25188;51.958;5.842;2023-04-25T05:08:06;14.90;;;4.50;;
39020;SDS011;25188;51.958;5.842;2023-04-25T05:10:32;15.43;;;4.47;;
39020;SDS011;25188;51.958;5.842;2023-04-25T05:12:57;20.77;;;4.93;;
39020;SDS011;25188;51.958;5.842;2023-04-25T05:15:23;13.50;;;3.80;;
39020;SDS011;25188;51.958;5.842;2023-04-25T05:17:49;12.73;;;3.73;;
39020;SDS011;25188;51.958;5.842;2023-04-25T05:20:15;12.53;;;3.43;;
39020;SDS011;25188;51.958;5.842;2023-04-25T05:22:40;18.10;;;3.47;;
39020;SDS011;25188;51.958;5.842;2023-04-25T05:25:07;13.73;;;3.10;;
39020;SDS011;25188;51.958;5.842;2023-04-25T05:27:33;18.83;;;3.53;;
39020;SDS011;25188;51.958;5.842;2023-04-25T05:29:59;13.07;;;3.27;;
39020;SDS011;25188;51.958;5.842;2023-04-25T05:32:24;13.73;;;3.10;;
39020;SDS011;25188;51.958;5.842;2023-04-25T05:34:50;10.97;;;3.30;;
39020;SDS011;25188;51.958;5.842;2023-04-25T05:37:16;18.47;;;3.57;;
39020;SDS011;25188;51.958;5.842;2023-04-25T05:39:42;11.37;;;2.73;;
39020;SDS011;25188;51.958;5.842;2023-04-25T05:42:08;9.30;;;2.93;;
39020;SDS011;25188;51.958;5.842;2023-04-25T05:44:33;14.60;;;3.50;;
39020;SDS011;25188;51.958;5.842;2023-04-25T05:46:59;11.47;;;2.77;;
39020;SDS011;25188;51.958;5.842;2023-04-25T05:49:25;14.33;;;2.73;;
39020;SDS011;25188;51.958;5.842;2023-04-25T05:51:50;16.60;;;2.97;;
39020;SDS011;25188;51.958;5.842;2023-04-25T05:54:16;12.93;;;3.47;;
39020;SDS011;25188;51.958;5.842;2023-04-25T05:56:41;11.63;;;2.80;;
39020;SDS011;25188;51.958;5.842;2023-04-25T05:59:07;13.47;;;3.03;;
39020;SDS011;25188;51.958;5.842;2023-04-25T06:01:33;9.83;;;2.40;;
39020;SDS011;25188;51.958;5.842;2023-04-25T06:03:58;10.50;;;2.53;;
39020;SDS011;25188;51.958;5.842;2023-04-25T06:06:24;8.73;;;2.43;;
39020;SDS011;25188;51.958;5.842;2023-04-25T06:08:51;9.33;;;2.47;;
39020;SDS011;25188;51.958;5.842;2023-04-25T06:11:17;15.20;;;3.27;;
39020;SDS011;25188;51.958;5.842;2023-04-25T06:13:42;8.20;;;2.30;;
39020;SDS011;25188;51.958;5.842;2023-04-25T06:16:08;9.20;;;2.90;;
39020;SDS011;25188;51.958;5.842;2023-04-25T06:18:34;11.47;;;2.43;;
39020;SDS011;25188;51.958;5.842;2023-04-25T06:21:00;8.97;;;2.10;;
39020;SDS011;25188;51.958;5.842;2023-04-25T06:23:25;16.03;;;1.70;;
39020;SDS011;25188;51.958;5.842;2023-04-25T06:25:51;8.67;;;2.97;;
39020;SDS011;25188;51.958;5.842;2023-04-25T06:28:17;7.43;;;1.90;;
39020;SDS011;25188;51.958;5.842;2023-04-25T06:30:42;10.53;;;2.57;;
39020;SDS011;25188;51.958;5.842;2023-04-25T06:33:08;8.03;;;1.53;;
39020;SDS011;25188;51.958;5.842;2023-04-25T06:35:34;9.90;;;2.17;;
39020;SDS011;25188;51.958;5.842;2023-04-25T06:38:00;8.90;;;2.20;;
39020;SDS011;25188;51.958;5.842;2023-04-25T06:40:25;10.23;;;1.87;;
39020;SDS011;25188;51.958;5.842;2023-04-25T06:42:51;11.27;;;2.30;;
39020;SDS011;25188;51.958;5.842;2023-04-25T06:45:17;11.53;;;2.60;;
39020;SDS011;25188;51.958;5.842;2023-04-25T06:47:42;10.90;;;2.10;;
39020;SDS011;25188;51.958;5.842;2023-04-25T06:50:08;10.00;;;2.20;;
39020;SDS011;25188;51.958;5.842;2023-04-25T06:52:34;8.63;;;1.87;;
39020;SDS011;25188;51.958;5.842;2023-04-25T06:54:59;13.97;;;1.93;;
39020;SDS011;25188;51.958;5.842;2023-04-25T06:57:25;12.90;;;2.27;;
39020;SDS011;25188;51.958;5.842;2023-04-25T06:59:51;10.43;;;1.53;;
39020;SDS011;25188;51.958;5.842;2023-04-25T07:02:16;9.30;;;1.73;;
39020;SDS011;25188;51.958;5.842;2023-04-25T07:04:42;9.70;;;1.87;;
39020;SDS011;25188;51.958;5.842;2023-04-25T07:07:07;10.37;;;2.00;;
39020;SDS011;25188;51.958;5.842;2023-04-25T07:09:33;11.80;;;2.00;;
39020;SDS011;25188;51.958;5.842;2023-04-25T07:11:59;9.13;;;1.60;;
39020;SDS011;25188;51.958;5.842;2023-04-25T07:14:26;8.00;;;1.63;;
39020;SDS011;25188;51.958;5.842;2023-04-25T07:16:52;9.30;;;1.70;;
39020;SDS011;25188;51.958;5.842;2023-04-25T07:19:18;12.87;;;2.27;;
39020;SDS011;25188;51.958;5.842;2023-04-25T07:21:43;15.10;;;2.50;;
39020;SDS011;25188;51.958;5.842;2023-04-25T07:24:09;9.13;;;1.33;;
39020;SDS011;25188;51.958;5.842;2023-04-25T07:26:34;14.47;;;1.90;;
39020;SDS011;25188;51.958;5.842;2023-04-25T07:29:00;9.80;;;1.53;;
39020;SDS011;25188;51.958;5.842;2023-04-25T07:31:25;11.27;;;1.57;;
39020;SDS011;25188;51.958;5.842;2023-04-25T07:33:52;8.07;;;1.33;;
39020;SDS011;25188;51.958;5.842;2023-04-25T07:36:18;12.00;;;1.33;;
39020;SDS011;25188;51.958;5.842;2023-04-25T07:38:43;9.90;;;1.47;;
39020;SDS011;25188;51.958;5.842;2023-04-25T07:41:09;9.73;;;1.60;;
39020;SDS011;25188;51.958;5.842;2023-04-25T07:43:35;10.37;;;1.50;;
39020;SDS011;25188;51.958;5.842;2023-04-25T07:46:00;8.97;;;1.30;;
39020;SDS011;25188;51.958;5.842;2023-04-25T07:48:26;10.30;;;1.17;;
39020;SDS011;25188;51.958;5.842;2023-04-25T07:50:51;7.87;;;1.20;;
39020;SDS011;25188;51.958;5.842;2023-04-25T07:53:17;8.50;;;1.10;;
39020;SDS011;25188;51.958;5.842;2023-04-25T07:55:43;8.70;;;1.50;;
39020;SDS011;25188;51.958;5.842;2023-04-25T07:58:09;8.60;;;1.20;;
39020;SDS011;25188;51.958;5.842;2023-04-25T08:00:36;11.13;;;1.80;;
39020;SDS011;25188;51.958;5.842;2023-04-25T08:03:02;10.50;;;1.87;;
39020;SDS011;25188;51.958;5.842;2023-04-25T08:05:28;16.37;;;1.47;;
39020;SDS011;25188;51.958;5.842;2023-04-25T08:07:54;12.93;;;1.70;;
39020;SDS011;25188;51.958;5.842;2023-04-25T08:10:21;9.50;;;1.70;;
39020;SDS011;25188;51.958;5.842;2023-04-25T08:12:48;12.27;;;1.37;;
39020;SDS011;25188;51.958;5.842;2023-04-25T08:15:13;8.00;;;1.40;;
39020;SDS011;25188;51.958;5.842;2023-04-25T08:17:39;11.63;;;1.60;;
39020;SDS011;25188;51.958;5.842;2023-04-25T08:20:05;6.73;;;1.00;;
39020;SDS011;25188;51.958;5.842;2023-04-25T08:22:31;8.47;;;1.10;;
39020;SDS011;25188;51.958;5.842;2023-04-25T08:24:57;5.60;;;1.00;;
39020;SDS011;25188;51.958;5.842;2023-04-25T08:27:23;4.83;;;0.90;;
39020;SDS011;25188;51.958;5.842;2023-04-25T08:29:49;5.67;;;0.97;;
39020;SDS011;25188;51.958;5.842;2023-04-25T08:32:15;4.93;;;0.80;;
39020;SDS011;25188;51.958;5.842;2023-04-25T08:34:41;5.10;;;0.70;;
39020;SDS011;25188;51.958;5.842;2023-04-25T08:37:08;8.03;;;1.10;;
39020;SDS011;25188;51.958;5.842;2023-04-25T08:39:37;10.60;;;1.23;;
39020;SDS011;25188;51.958;5.842;2023-04-25T08:42:05;5.93;;;1.20;;
39020;SDS011;25188;51.958;5.842;2023-04-25T08:44:35;8.47;;;1.73;;
39020;SDS011;25188;51.958;5.842;2023-04-25T08:47:04;8.40;;;1.10;;
39020;SDS011;25188;51.958;5.842;2023-04-25T08:49:31;4.47;;;1.00;;
39020;SDS011;25188;51.958;5.842;2023-04-25T08:52:01;9.03;;;1.13;;
39020;SDS011;25188;51.958;5.842;2023-04-25T08:54:31;6.03;;;1.13;;
39020;SDS011;25188;51.958;5.842;2023-04-25T08:56:57;7.97;;;1.00;;
39020;SDS011;25188;51.958;5.842;2023-04-25T08:59:30;5.00;;;0.80;;
39020;SDS011;25188;51.958;5.842;2023-04-25T09:01:57;7.10;;;0.80;;
39020;SDS011;25188;51.958;5.842;2023-04-25T09:04:23;10.50;;;1.00;;
39020;SDS011;25188;51.958;5.842;2023-04-25T09:06:48;5.13;;;1.00;;
39020;SDS011;25188;51.958;5.842;2023-04-25T09:09:14;5.83;;;1.00;;
39020;SDS011;25188;51.958;5.842;2023-04-25T09:11:40;4.80;;;0.80;;
39020;SDS011;25188;51.958;5.842;2023-04-25T09:14:24;6.47;;;0.90;;
39020;SDS011;25188;51.958;5.842;2023-04-25T09:19:27;5.33;;;0.93;;
39020;SDS011;25188;51.958;5.842;2023-04-25T09:21:53;3.50;;;0.70;;
39020;SDS011;25188;51.958;5.842;2023-04-25T09:24:39;5.57;;;0.60;;
39020;SDS011;25188;51.958;5.842;2023-04-25T09:27:09;8.93;;;1.00;;
39020;SDS011;25188;51.958;5.842;2023-04-25T09:29:36;4.60;;;0.60;;
39020;SDS011;25188;51.958;5.842;2023-04-25T09:34:54;2.83;;;0.60;;
39020;SDS011;25188;51.958;5.842;2023-04-25T09:37:25;4.57;;;0.60;;
39020;SDS011;25188;51.958;5.842;2023-04-25T09:39:55;3.87;;;0.60;;
39020;SDS011;25188;51.958;5.842;2023-04-25T09:42:24;5.57;;;0.87;;
39020;SDS011;25188;51.958;5.842;2023-04-25T09:44:53;7.83;;;1.07;;
39020;SDS011;25188;51.958;5.842;2023-04-25T09:47:20;7.27;;;1.27;;
39020;SDS011;25188;51.958;5.842;2023-04-25T09:49:48;5.83;;;1.07;;
39020;SDS011;25188;51.958;5.842;2023-04-25T09:52:15;9.30;;;1.63;;
39020;SDS011;25188;51.958;5.842;2023-04-25T09:54:42;6.33;;;0.70;;
39020;SDS011;25188;51.958;5.842;2023-04-25T09:59:55;6.32;;;0.98;;
39020;SDS011;25188;51.958;5.842;2023-04-25T10:02:21;7.73;;;0.60;;
39020;SDS011;25188;51.958;5.842;2023-04-25T10:04:50;8.83;;;1.20;;
39020;SDS011;25188;51.958;5.842;2023-04-25T10:07:19;4.93;;;0.57;;
39020;SDS011;25188;51.958;5.842;2023-04-25T10:09:48;6.83;;;1.10;;
39020;SDS011;25188;51.958;5.842;2023-04-25T10:12:16;6.40;;;0.70;;
39020;SDS011;25188;51.958;5.842;2023-04-25T10:14:42;4.87;;;0.60;;
39020;SDS011;25188;51.958;5.842;2023-04-25T10:17:10;3.42;;;0.55;;
39020;SDS011;25188;51.958;5.842;2023-04-25T10:19:38;5.32;;;0.65;;
39020;SDS011;25188;51.958;5.842;2023-04-25T10:24:38;8.90;;;1.15;;
39020;SDS011;25188;51.958;5.842;2023-04-25T10:27:04;6.05;;;0.90;;
39020;SDS011;25188;51.958;5.842;2023-04-25T10:29:31;6.03;;;0.60;;
39020;SDS011;25188;51.958;5.842;2023-04-25T10:31:56;6.75;;;1.05;;
39020;SDS011;25188;51.958;5.842;2023-04-25T10:34:38;6.03;;;0.57;;
39020;SDS011;25188;51.958;5.842;2023-04-25T10:37:05;3.20;;;0.50;;
39020;SDS011;25188;51.958;5.842;2023-04-25T10:39:34;5.57;;;0.60;;
39020;SDS011;25188;51.958;5.842;2023-04-25T10:42:01;4.05;;;0.50;;
39020;SDS011;25188;51.958;5.842;2023-04-25T10:44:28;8.40;;;0.70;;
39020;SDS011;25188;51.958;5.842;2023-04-25T10:46:58;7.38;;;0.63;;
39020;SDS011;25188;51.958;5.842;2023-04-25T10:49:29;4.80;;;0.80;;
39020;SDS011;25188;51.958;5.842;2023-04-25T10:54:51;3.67;;;0.60;;
39020;SDS011;25188;51.958;5.842;2023-04-25T10:57:31;3.17;;;0.60;;
39020;SDS011;25188;51.958;5.842;2023-04-25T11:00:05;4.57;;;1.05;;
39020;SDS011;25188;51.958;5.842;2023-04-25T11:02:37;5.43;;;0.40;;
39020;SDS011;25188;51.958;5.842;2023-04-25T11:05:22;4.28;;;0.52;;
39020;SDS011;25188;51.958;5.842;2023-04-25T11:07:52;4.13;;;0.77;;
39020;SDS011;25188;51.958;5.842;2023-04-25T11:10:40;5.15;;;0.50;;
39020;SDS011;25188;51.958;5.842;2023-04-25T11:13:06;5.50;;;0.50;;
39020;SDS011;25188;51.958;5.842;2023-04-25T11:15:32;2.30;;;0.45;;
39020;SDS011;25188;51.958;5.842;2023-04-25T11:17:58;4.43;;;0.50;;
39020;SDS011;25188;51.958;5.842;2023-04-25T11:20:25;6.18;;;0.95;;
39020;SDS011;25188;51.958;5.842;2023-04-25T11:22:51;3.45;;;0.50;;
39020;SDS011;25188;51.958;5.842;2023-04-25T11:25:16;7.63;;;0.63;;
39020;SDS011;25188;51.958;5.842;2023-04-25T11:30:17;3.88;;;0.80;;
39020;SDS011;25188;51.958;5.842;2023-04-25T11:32:43;5.25;;;0.60;;
39020;SDS011;25188;51.958;5.842;2023-04-25T11:35:09;4.35;;;0.70;;
39020;SDS011;25188;51.958;5.842;2023-04-25T11:37:36;2.67;;;0.47;;
39020;SDS011;25188;51.958;5.842;2023-04-25T11:40:03;6.00;;;0.85;;
39020;SDS011;25188;51.958;5.842;2023-04-25T11:42:31;2.85;;;0.60;;
39020;SDS011;25188;51.958;5.842;2023-04-25T11:44:58;4.68;;;0.50;;
39020;SDS011;25188;51.958;5.842;2023-04-25T11:47:30;3.80;;;0.50;;
39020;SDS011;25188;51.958;5.842;2023-04-25T11:49:57;4.97;;;0.70;;
39020;SDS011;25188;51.958;5.842;2023-04-25T11:52:41;4.78;;;0.68;;
39020;SDS011;25188;51.958;5.842;2023-04-25T11:55:18;5.53;;;0.57;;
39020;SDS011;25188;51.958;5.842;2023-04-25T11:57:45;2.70;;;0.60;;
39020;SDS011;25188;51.958;5.842;2023-04-25T12:00:21;4.60;;;0.60;;
39020;SDS011;25188;51.958;5.842;2023-04-25T12:02:56;2.55;;;0.50;;
39020;SDS011;25188;51.958;5.842;2023-04-25T12:05:27;2.10;;;0.50;;
39020;SDS011;25188;51.958;5.842;2023-04-25T12:07:54;3.72;;;0.55;;
39020;SDS011;25188;51.958;5.842;2023-04-25T12:10:20;5.20;;;0.77;;
39020;SDS011;25188;51.958;5.842;2023-04-25T12:12:46;3.70;;;0.60;;
39020;SDS011;25188;51.958;5.842;2023-04-25T12:15:16;4.50;;;0.70;;
39020;SDS011;25188;51.958;5.842;2023-04-25T12:17:48;6.50;;;0.80;;
39020;SDS011;25188;51.958;5.842;2023-04-25T12:20:16;4.32;;;0.63;;
39020;SDS011;25188;51.958;5.842;2023-04-25T12:22:45;5.03;;;0.85;;
39020;SDS011;25188;51.958;5.842;2023-04-25T12:25:12;5.32;;;0.98;;
39020;SDS011;25188;51.958;5.842;2023-04-25T12:28:14;7.38;;;0.75;;
39020;SDS011;25188;51.958;5.842;2023-04-25T12:30:55;4.85;;;0.80;;
39020;SDS011;25188;51.958;5.842;2023-04-25T12:33:28;9.63;;;1.02;;
39020;SDS011;25188;51.958;5.842;2023-04-25T12:35:54;5.45;;;0.70;;
39020;SDS011;25188;51.958;5.842;2023-04-25T12:38:21;3.45;;;0.77;;
39020;SDS011;25188;51.958;5.842;2023-04-25T12:40:51;6.65;;;0.70;;
39020;SDS011;25188;51.958;5.842;2023-04-25T12:43:17;6.05;;;0.82;;
39020;SDS011;25188;51.958;5.842;2023-04-25T12:45:44;6.32;;;0.82;;
39020;SDS011;25188;51.958;5.842;2023-04-25T12:48:10;4.93;;;0.70;;
39020;SDS011;25188;51.958;5.842;2023-04-25T12:50:36;5.47;;;0.90;;
39020;SDS011;25188;51.958;5.842;2023-04-25T12:53:01;8.25;;;0.80;;
39020;SDS011;25188;51.958;5.842;2023-04-25T12:55:27;5.13;;;0.60;;
39020;SDS011;25188;51.958;5.842;2023-04-25T12:57:53;5.93;;;0.88;;
39020;SDS011;25188;51.958;5.842;2023-04-25T13:00:18;4.60;;;0.60;;
39020;SDS011;25188;51.958;5.842;2023-04-25T13:02:45;4.07;;;0.50;;
39020;SDS011;25188;51.958;5.842;2023-04-25T13:05:13;5.97;;;0.77;;
39020;SDS011;25188;51.958;5.842;2023-04-25T13:07:39;6.75;;;0.60;;
39020;SDS011;25188;51.958;5.842;2023-04-25T13:10:06;6.28;;;0.80;;
39020;SDS011;25188;51.958;5.842;2023-04-25T13:12:32;4.63;;;0.60;;
39020;SDS011;25188;51.958;5.842;2023-04-25T13:14:58;3.17;;;0.70;;
39020;SDS011;25188;51.958;5.842;2023-04-25T13:17:24;5.07;;;0.70;;
39020;SDS011;25188;51.958;5.842;2023-04-25T13:19:49;5.53;;;0.70;;
39020;SDS011;25188;51.958;5.842;2023-04-25T13:22:15;3.30;;;0.90;;
39020;SDS011;25188;51.958;5.842;2023-04-25T13:24:45;4.22;;;0.52;;
39020;SDS011;25188;51.958;5.842;2023-04-25T13:27:11;3.58;;;0.98;;
39020;SDS011;25188;51.958;5.842;2023-04-25T13:29:37;4.05;;;0.77;;
39020;SDS011;25188;51.958;5.842;2023-04-25T13:32:05;3.78;;;0.60;;
39020;SDS011;25188;51.958;5.842;2023-04-25T13:34:31;3.08;;;0.70;;
39020;SDS011;25188;51.958;5.842;2023-04-25T13:36:57;3.03;;;0.50;;
39020;SDS011;25188;51.958;5.842;2023-04-25T13:39:22;3.90;;;0.70;;
39020;SDS011;25188;51.958;5.842;2023-04-25T13:41:48;3.60;;;0.60;;
39020;SDS011;25188;51.958;5.842;2023-04-25T13:44:14;2.17;;;0.47;;
39020;SDS011;25188;51.958;5.842;2023-04-25T13:46:39;3.25;;;0.52;;
39020;SDS011;25188;51.958;5.842;2023-04-25T13:49:05;5.07;;;0.60;;
39020;SDS011;25188;51.958;5.842;2023-04-25T13:51:31;2.05;;;0.40;;
39020;SDS011;25188;51.958;5.842;2023-04-25T13:53:57;2.65;;;0.40;;
39020;SDS011;25188;51.958;5.842;2023-04-25T13:56:22;1.73;;;0.32;;
39020;SDS011;25188;51.958;5.842;2023-04-25T13:58:50;4.03;;;0.52;;
39020;SDS011;25188;51.958;5.842;2023-04-25T14:01:16;3.60;;;0.55;;
39020;SDS011;25188;51.958;5.842;2023-04-25T14:03:42;4.20;;;0.40;;
39020;SDS011;25188;51.958;5.842;2023-04-25T14:06:08;3.58;;;0.50;;
39020;SDS011;25188;51.958;5.842;2023-04-25T14:08:34;4.03;;;0.70;;
39020;SDS011;25188;51.958;5.842;2023-04-25T14:10:59;5.07;;;0.70;;
39020;SDS011;25188;51.958;5.842;2023-04-25T14:13:25;3.85;;;0.70;;
39020;SDS011;25188;51.958;5.842;2023-04-25T14:15:51;1.75;;;0.45;;
39020;SDS011;25188;51.958;5.842;2023-04-25T14:18:17;4.07;;;0.60;;
39020;SDS011;25188;51.958;5.842;2023-04-25T14:20:43;3.53;;;0.68;;
39020;SDS011;25188;51.958;5.842;2023-04-25T14:23:09;4.00;;;0.60;;
39020;SDS011;25188;51.958;5.842;2023-04-25T14:25:35;7.00;;;0.60;;
39020;SDS011;25188;51.958;5.842;2023-04-25T14:28:01;2.05;;;0.40;;
39020;SDS011;25188;51.958;5.842;2023-04-25T14:30:27;4.38;;;0.60;;
39020;SDS011;25188;51.958;5.842;2023-04-25T14:32:53;3.67;;;0.50;;
39020;SDS011;25188;51.958;5.842;2023-04-25T14:35:19;4.80;;;0.52;;
39020;SDS011;25188;51.958;5.842;2023-04-25T14:37:45;3.33;;;0.55;;
39020;SDS011;25188;51.958;5.842;2023-04-25T14:40:11;5.28;;;0.50;;
39020;SDS011;25188;51.958;5.842;2023-04-25T14:42:38;2.40;;;0.45;;
39020;SDS011;25188;51.958;5.842;2023-04-25T14:45:07;6.80;;;1.10;;
39020;SDS011;25188;51.958;5.842;2023-04-25T14:47:34;1.70;;;0.40;;
39020;SDS011;25188;51.958;5.842;2023-04-25T14:50:02;4.50;;;0.60;;
39020;SDS011;25188;51.958;5.842;2023-04-25T14:52:29;6.40;;;0.60;;
39020;SDS011;25188;51.958;5.842;2023-04-25T14:54:56;4.00;;;0.43;;